• Join FlightAware (Why Join?)
  • Login
  • US Flag 
06:05PM EDT


 

Airport Tracker/Info


-or-


 

Live Flight TrackerFlight Track Log ✈ TAM3345 ✈ 19-Aug-2013 ✈ SBCF / CNF - SBGR / GRU

Flight Track Log - Related Links

Times and Time Zones

All times are in EDT time to prevent confusion due to time zone crossing. See the TAM3345 flight status page for this flight to view local times or setup timezone preferences in your user account.

Time Position Orientation Groundspeed Altitude Reporting Facility
EDT Latitude Longitude Course Direction KTS MPH feet Rate Location/Type
09:41AM -19.6280 -43.9740 180° South 90 104  Level FlightAware
09:42AM -19.6370 -43.9660 140° Southeast 165 190 4,800 Level FlightAware
09:42AM -19.6470 -43.9570 140° Southeast 171 197 2,900 6,780 Climbing FlightAware
09:42AM -19.6570 -43.9500 147° Southeast 183 211 3,400 1,980 Climbing FlightAware
09:42AM -19.6700 -43.9460 164° South 189 217 3,900 2,160 Climbing FlightAware
09:43AM -19.6860 -43.9410 164° South 191 220 4,700 1,980 Climbing FlightAware
09:43AM -19.6930 -43.9340 137° Southeast 188 216 5,000 1,980 Climbing FlightAware
09:43AM -19.6950 -43.9290 113° Southeast 187 215 5,200 2,640 Climbing FlightAware
09:43AM -19.6960 -43.9250 105° East 186 214 5,400 2,160 Climbing FlightAware
09:43AM -19.6860 -43.9060 61° Northeast 192 221 6,300 1,920 Climbing FlightAware
09:44AM -19.6790 -43.9030 22° Northeast 205 236 6,500 1,200 Climbing FlightAware
09:44AM -19.6720 -43.9030 360° North 213 245 6,600 960 Climbing FlightAware
09:44AM -19.6470 -43.9070 351° North 238 274 7,000 1,020 Climbing FlightAware
09:44AM -19.6290 -43.9100 351° North 260 299 7,300 1,380 Climbing FlightAware
09:45AM -19.6110 -43.9170 340° North 278 320 7,700 1,680 Climbing FlightAware
09:45AM -19.6010 -43.9250 323° Northwest 287 330 8,000 1,980 Climbing FlightAware
09:45AM -19.5930 -43.9370 305° West 289 333 8,400 2,520 Climbing FlightAware
09:45AM -19.5880 -43.9510 291° West 287 330 8,900 2,580 Climbing FlightAware
09:46AM -19.5810 -43.9760 287° West 292 336 9,700 2,160 Climbing FlightAware
09:46AM -19.5670 -44.0210 288° West 311 358 10,700 1,740 Climbing FlightAware
09:46AM -19.5660 -44.0340 275° West 323 372 10,900 1,080 Climbing FlightAware
09:47AM -19.5770 -44.0690 252° West 343 395 11,300 1,200 Climbing FlightAware
09:47AM -19.6120 -44.1080 226° Southwest 366 421 12,000 1,680 Climbing FlightAware
09:48AM -19.6460 -44.1400 222° Southwest 376 433 12,900 2,400 Climbing FlightAware
09:48AM -19.6660 -44.1480 201° Southwest 377 434 13,600 3,060 Climbing FlightAware
09:48AM -19.7280 -44.1560 187° South 374 430 15,300 3,480 Climbing FlightAware
09:49AM -19.7760 -44.1690 194° South 348 400 17,300 3,480 Climbing FlightAware
09:49AM -19.8000 -44.1890 218° Southwest 344 396 18,300 2,460 Climbing FlightAware
09:50AM -19.8310 -44.2390 237° Southwest 345 397 19,600 1,500 Climbing FlightAware
09:50AM -19.8640 -44.2930 237° Southwest 366 421 20,100 1,080 Climbing FlightAware
09:51AM -19.8960 -44.3450 237° Southwest 377 434 20,900 1,440 Climbing FlightAware
09:51AM -19.9300 -44.4000 237° Southwest 381 438 21,800 1,500 Climbing FlightAware
09:52AM -19.9790 -44.4780 236° Southwest 390 449 23,100 1,500 Climbing FlightAware
09:53AM -20.0070 -44.5220 236° Southwest 391 450 23,800 1,680 Climbing FlightAware
09:53AM -20.0290 -44.5560 235° Southwest 388 447 24,500 1,740 Climbing FlightAware
09:54AM -20.0800 -44.5960 216° Southwest 387 445 25,400 1,560 Climbing FlightAware
09:54AM -20.1260 -44.6260 211° Southwest 387 445 26,200 1,380 Climbing FlightAware
09:55AM -20.1760 -44.6610 213° Southwest 389 448 26,900 1,080 Climbing FlightAware
09:55AM -20.2390 -44.7040 213° Southwest 394 453 27,600 1,200 Climbing FlightAware
09:56AM -20.2820 -44.7330 212° Southwest 393 452 28,300 1,080 Climbing FlightAware
09:57AM -20.3460 -44.7770 213° Southwest 398 458 28,900 840 Climbing FlightAware
09:57AM -20.3950 -44.8100 212° Southwest 405 466 29,300 780 Climbing FlightAware
09:57AM -20.4160 -44.8280 219° Southwest 408 470 29,500 720 Climbing FlightAware
09:58AM -20.4670 -44.8900 229° Southwest 415 478 30,000 840 Climbing FlightAware
09:59AM -20.5050 -44.9360 229° Southwest 415 478 30,500 960 Climbing FlightAware
09:59AM -20.5510 -44.9910 228° Southwest 419 482 31,100 960 Climbing FlightAware
10:00AM -20.5970 -45.0460 228° Southwest 419 482 31,700 720 Climbing FlightAware
10:00AM -20.6420 -45.1000 228° Southwest 414 476 32,000 240 Climbing FlightAware
10:01AM -20.6830 -45.1510 229° Southwest 413 475 32,000  Level FlightAware
10:02AM -20.7300 -45.2070 228° Southwest 415 478 32,000  Level FlightAware
10:02AM -20.7700 -45.2560 229° Southwest 417 480 32,000  Level FlightAware
10:03AM -20.8080 -45.3020 229° Southwest 416 479 32,000  Level FlightAware
10:03AM -20.8540 -45.3570 228° Southwest 416 479 32,000  Level FlightAware
10:04AM -20.9040 -45.4190 229° Southwest 414 476 32,000  Level FlightAware
10:04AM -20.9420 -45.4650 229° Southwest 413 475 32,000  Level FlightAware
10:05AM -20.9810 -45.5120 228° Southwest 411 473 32,000  Level FlightAware
10:05AM -21.0240 -45.5650 229° Southwest 411 473 32,000  Level FlightAware
10:06AM -21.0680 -45.6190 229° Southwest 411 473 32,000  Level FlightAware
10:07AM -21.1120 -45.6720 228° Southwest 411 473 32,000  Level FlightAware
10:07AM -21.1530 -45.7230 229° Southwest 411 473 32,000  Level FlightAware
10:08AM -21.1960 -45.7760 229° Southwest 413 475 32,000  Level FlightAware
10:08AM -21.2480 -45.8390 228° Southwest 414 476 32,000  Level FlightAware
10:09AM -21.2980 -45.9010 229° Southwest 415 478 32,000  Level FlightAware
10:10AM -21.3420 -45.9540 228° Southwest 416 479 32,000  Level FlightAware
10:10AM -21.3940 -46.0190 229° Southwest 414 476 32,000  Level FlightAware
10:11AM -21.4350 -46.0690 229° Southwest 414 476 32,000  Level FlightAware
10:11AM -21.4760 -46.1200 229° Southwest 412 474 32,000  Level FlightAware
10:12AM -21.5270 -46.1830 229° Southwest 410 472 32,000  Level FlightAware
10:13AM -21.5690 -46.2350 229° Southwest 409 471 32,000  Level FlightAware
10:13AM -21.6120 -46.2880 229° Southwest 409 471 32,000  Level FlightAware
10:14AM -21.6510 -46.3360 229° Southwest 408 470 32,000  Level FlightAware
10:14AM -21.6980 -46.3940 229° Southwest 408 470 32,000  Level FlightAware
10:15AM -21.7480 -46.4560 229° Southwest 407 468 32,000  Level FlightAware
10:16AM -21.7910 -46.5100 229° Southwest 402 463 32,000  Level FlightAware
10:16AM -21.8470 -46.5780 228° Southwest 401 461 32,000  Level FlightAware
10:17AM -21.8930 -46.6290 226° Southwest 401 461 32,000  Level FlightAware
10:18AM -21.9470 -46.6880 225° Southwest 401 461 32,000  Level FlightAware
10:18AM -21.9940 -46.7390 225° Southwest 402 463 32,000  Level FlightAware
10:19AM -22.0400 -46.7890 225° Southwest 402 463 32,000  Level FlightAware
10:19AM -22.0860 -46.8410 226° Southwest 401 461 32,000  Level FlightAware
10:20AM -22.1320 -46.8910 225° Southwest 401 461 32,000 -360 Level FlightAware
10:21AM -22.1780 -46.9420 226° Southwest 399 459 31,600 -1,320 Descending FlightAware
10:21AM -22.2230 -46.9890 224° Southwest 388 447 30,500 -2,220 Descending FlightAware
10:21AM -22.2470 -47.0040 210° Southwest 390 449 29,700 -2,820 Descending FlightAware
10:22AM -22.3090 -47.0220 195° South 380 437 28,100 -2,760 Descending FlightAware
10:23AM -22.3760 -47.0400 194° South 382 440 26,400 -2,580 Descending FlightAware
10:23AM -22.4370 -47.0580 195° South 368 423 25,000 -2,400 Descending FlightAware
10:24AM -22.4960 -47.0740 194° South 363 418 23,600 -2,400 Descending FlightAware
10:24AM -22.5540 -47.0910 195° South 367 422 22,200 -2,280 Descending FlightAware
10:25AM -22.6070 -47.0860 175° South 379 436 21,100 -2,220 Descending FlightAware
10:25AM -22.6640 -47.0610 158° South 375 432 19,800 -2,220 Descending FlightAware
10:26AM -22.7040 -47.0440 159° South 372 428 18,900 -2,220 Descending FlightAware
10:26AM -22.7600 -47.0200 158° South 369 425 17,600 -2,220 Descending FlightAware
10:27AM -22.8200 -46.9960 160° South 365 420 16,300 -2,160 Descending FlightAware
10:28AM -22.8800 -46.9700 158° South 361 415 14,900 -2,340 Descending FlightAware
10:28AM -22.9270 -46.9510 160° South 361 415 13,700 -1,800 Descending FlightAware
10:29AM -22.9830 -46.9270 158° South 329 379 12,900 -1,080 Descending FlightAware
10:29AM -23.0320 -46.9060 158° South 296 341 12,400 -900 Descending FlightAware
10:30AM -23.0730 -46.8890 159° South 273 314 11,900 -900 Descending FlightAware
10:31AM -23.1130 -46.8730 160° South 252 290 11,400 -1,140 Descending FlightAware
10:31AM -23.1490 -46.8570 158° South 246 283 10,600 -1,380 Descending FlightAware
10:31AM -23.1580 -46.8510 148° Southeast 245 282 10,400 -1,740 Descending FlightAware
10:31AM -23.1670 -46.8400 132° Southeast 247 284 10,000 -2,280 Descending FlightAware
10:32AM -23.1690 -46.8350 114° Southeast 248 285 9,800 -1,920 Descending FlightAware
10:32AM -23.1720 -46.8200 102° East 245 282 9,500 -1,320 Descending FlightAware
10:32AM -23.1720 -46.7960 90° East 241 277 9,100 -780 Descending FlightAware
10:32AM -23.1720 -46.7730 90° East 237 273 9,000 -180 Descending FlightAware
10:33AM -23.1720 -46.7480 90° East 233 268 9,000 -420 Level FlightAware
10:33AM -23.1720 -46.7210 90° East 226 260 8,700 -960 Descending FlightAware
10:33AM -23.1740 -46.6990 96° East 222 255 8,300 -1,320 Descending FlightAware
10:34AM -23.1770 -46.6900 110° East 224 258 8,100 -1,500 Descending FlightAware
10:34AM -23.1790 -46.6860 119° Southeast 226 260 8,000 -1,020 Descending FlightAware
10:34AM -23.1840 -46.6800 132° Southeast 228 262 7,900 -1,140 Descending FlightAware
10:34AM -23.1930 -46.6760 158° South 229 264 7,700 -1,500 Descending FlightAware
10:34AM -23.1970 -46.6740 155° Southeast 228 262 7,600 -1,200 Descending FlightAware
10:34AM -23.2030 -46.6740 180° South 229 264 7,500 -900 Descending FlightAware
10:34AM -23.2230 -46.6840 205° Southwest 218 251 7,200 -660 Descending FlightAware
10:35AM -23.2430 -46.7020 220° Southwest 220 253 7,000 -420 Descending FlightAware
10:35AM -23.2590 -46.7170 221° Southwest 219 252 6,900 -660 Descending FlightAware
10:36AM -23.2730 -46.7300 220° Southwest 217 250 6,600 -1,080 Descending FlightAware
10:36AM -23.2890 -46.7440 219° Southwest 215 247 6,200 -960 Descending FlightAware
10:36AM -23.2940 -46.7450 190° South 215 247 6,200 -240 Level FlightAware
10:36AM -23.3200 -46.7510 192° South 219 252 6,100 -300 Descending FlightAware
10:37AM -23.3380 -46.7550 192° South 215 247 6,000 -900 Descending FlightAware
10:37AM -23.3530 -46.7580 190° South 216 249 5,600 -1,200 Descending FlightAware
10:37AM -23.3650 -46.7550 167° South 215 247 5,300 -660 Descending FlightAware
10:38AM -23.3780 -46.7480 154° Southeast 201 231 5,200 -300 Descending FlightAware
10:38AM -23.3970 -46.7370 152° Southeast 175 201 5,100 -180 Descending FlightAware
10:38AM -23.4090 -46.7310 155° Southeast 171 197 5,100 120 Level FlightAware
10:39AM -23.4260 -46.7190 147° Southeast 170 196 5,200 180 Climbing FlightAware
10:39AM -23.4300 -46.7150 137° Southeast 169 194 5,200 -540 Level FlightAware
10:39AM -23.4390 -46.7050 134° Southeast 167 192 5,000 -900 Descending FlightAware
10:40AM -23.4520 -46.6900 133° Southeast 163 188 4,600 -720 Descending FlightAware
10:40AM -23.4640 -46.6760 133° Southeast 157 181 4,400 -300 Descending FlightAware
10:40AM -23.4770 -46.6610 133° Southeast 163 188 4,400  Level FlightAware
10:41AM -23.4800 -46.6520 110° East 160 184 4,400  Level FlightAware
10:41AM -23.4780 -46.6330 83° East 152 175 4,400  Level FlightAware
10:41AM -23.4750 -46.6220 73° East 153 176 4,400 -180 Level FlightAware
10:41AM -23.4710 -46.6070 74° East 148 170 4,300 -480 Descending FlightAware
10:42AM -23.4670 -46.5920 74° East 151 174 4,100 -900 Descending FlightAware
10:42AM -23.4640 -46.5810 73° East 147 169 3,800 -840 Descending FlightAware
10:42AM -23.4600 -46.5670 73° East 141 162 3,600 -780 Descending FlightAware
10:43AM -23.4570 -46.5550 75° East 140 161 3,300 -780 Descending FlightAware
10:43AM -23.4530 -46.5400 74° East 138 159 3,100 -780 Descending FlightAware
10:43AM -23.4490 -46.5250 74° East 144 166 2,800 -780 Descending FlightAware
10:44AM -23.4450 -46.5110 73° East 138 159 2,600 -780 Descending FlightAware
10:44AM -23.4420 -46.4970 77° East 138 159 2,300 -900 Descending FlightAware
10:45AM -23.4360 -46.4770 72° East 110 127 -4,620 Descending FlightAware